Time;durP1;ratioP1;P1;durP2;ratioP2;P2;SDS_P1;SDS_P2;PMS_P1;PMS_P2;Temp;Humidity;BMP_temperature;BMP_pressure;BME280_temperature;BME280_humidity;BME280_pressure;Samples;Min_cycle;Max_cycle;Signal;HPM_P1;HPM_P2
2021/11/29 00:01:24;;;;;;;2.63;2.43;;;0.80;99.90;;;;;;4980155;28;20203;-60
2021/11/29 00:03:50;;;;;;;2.80;2.60;;;0.80;99.90;;;;;;4978496;28;20257;-60
2021/11/29 00:06:17;;;;;;;2.57;2.37;;;0.80;99.90;;;;;;4980461;28;20467;-59
2021/11/29 00:08:44;;;;;;;2.83;2.63;;;0.80;99.90;;;;;;4973673;28;20438;-61
2021/11/29 00:11:10;;;;;;;2.40;2.20;;;0.80;99.90;;;;;;4987057;28;20501;-60
2021/11/29 00:13:36;;;;;;;2.97;2.67;;;0.80;99.90;;;;;;4979819;28;20552;-60
2021/11/29 00:16:01;;;;;;;2.73;2.50;;;0.80;99.90;;;;;;4979844;28;20188;-60
2021/11/29 00:18:27;;;;;;;2.60;2.40;;;0.80;99.90;;;;;;4985764;28;20179;-60
2021/11/29 00:20:53;;;;;;;3.03;2.73;;;0.80;99.90;;;;;;4991668;28;20786;-59
2021/11/29 00:23:19;;;;;;;3.50;2.80;;;0.80;99.90;;;;;;4991324;28;20553;-60
2021/11/29 00:25:45;;;;;;;2.53;2.33;;;0.80;99.90;;;;;;4991350;28;20187;-60
2021/11/29 00:28:11;;;;;;;3.20;2.30;;;0.80;99.90;;;;;;4992333;28;20980;-60
2021/11/29 00:30:38;;;;;;;2.70;2.50;;;0.80;99.90;;;;;;4987936;28;20436;-60
2021/11/29 00:33:05;;;;;;;2.77;2.57;;;0.80;99.90;;;;;;4988399;28;20591;-61
2021/11/29 00:35:31;;;;;;;2.40;2.20;;;0.80;99.90;;;;;;4991632;28;20418;-60
2021/11/29 00:37:56;;;;;;;2.30;2.20;;;0.80;99.90;;;;;;4994654;28;20442;-59
2021/11/29 00:40:23;;;;;;;2.57;2.37;;;0.80;99.90;;;;;;4984105;28;20487;-66
2021/11/29 00:42:49;;;;;;;8.67;2.40;;;0.80;99.90;;;;;;4982781;28;20310;-58
2021/11/29 00:45:15;;;;;;;2.50;2.30;;;0.80;99.90;;;;;;4983807;28;20563;-59
2021/11/29 00:47:40;;;;;;;2.53;2.37;;;0.80;99.90;;;;;;4981957;28;21349;-60
2021/11/29 00:50:08;;;;;;;3.00;2.70;;;0.70;99.90;;;;;;4983531;28;20225;-60
2021/11/29 00:52:34;;;;;;;3.10;2.30;;;0.70;99.90;;;;;;4984899;28;21917;-60
2021/11/29 00:55:00;;;;;;;2.80;2.53;;;0.70;99.90;;;;;;4984880;28;20527;-59
2021/11/29 00:57:26;;;;;;;2.60;2.40;;;0.70;99.90;;;;;;4985146;28;20442;-60
2021/11/29 00:59:51;;;;;;;2.80;2.47;;;0.70;99.90;;;;;;4983110;28;20652;-58
2021/11/29 01:02:17;;;;;;;2.83;2.63;;;0.70;99.90;;;;;;4982783;28;20199;-60
2021/11/29 01:04:43;;;;;;;2.93;2.40;;;0.70;99.90;;;;;;4982413;28;20279;-60
2021/11/29 01:07:09;;;;;;;3.20;2.60;;;0.70;99.90;;;;;;4984372;28;20524;-60
2021/11/29 01:09:36;;;;;;;2.80;2.60;;;0.70;99.90;;;;;;4982690;28;21942;-60
2021/11/29 01:12:02;;;;;;;1.97;1.87;;;0.70;99.90;;;;;;4980705;28;20465;-60
2021/11/29 01:14:28;;;;;;;2.80;2.43;;;0.70;99.90;;;;;;4982878;28;20426;-60
2021/11/29 01:16:54;;;;;;;2.30;2.10;;;0.60;99.90;;;;;;4985323;28;20441;-61
2021/11/29 01:19:19;;;;;;;2.73;2.50;;;0.70;99.90;;;;;;4983282;28;20606;-58
2021/11/29 01:21:45;;;;;;;2.77;2.23;;;0.70;99.90;;;;;;4980479;28;20497;-60
2021/11/29 01:24:11;;;;;;;2.13;2.03;;;0.70;99.90;;;;;;4985504;28;20206;-59
2021/11/29 01:26:37;;;;;;;2.80;2.60;;;0.60;99.90;;;;;;4980792;28;21055;-60
2021/11/29 01:29:03;;;;;;;2.80;2.60;;;0.60;99.90;;;;;;4981828;28;20674;-59
2021/11/29 01:31:28;;;;;;;2.93;2.70;;;0.60;99.90;;;;;;4982673;28;20430;-60
2021/11/29 01:33:54;;;;;;;2.43;2.23;;;0.60;99.90;;;;;;4996630;28;20475;-59
2021/11/29 01:36:20;;;;;;;2.83;2.63;;;0.60;99.90;;;;;;5005518;28;20291;-61
2021/11/29 01:38:46;;;;;;;5.60;2.50;;;0.60;99.90;;;;;;4988802;28;20187;-60
2021/11/29 01:41:13;;;;;;;3.23;2.70;;;0.60;99.90;;;;;;4981257;28;22536;-60
2021/11/29 01:43:39;;;;;;;3.70;2.67;;;0.60;99.90;;;;;;4979798;28;20210;-60
2021/11/29 01:46:05;;;;;;;2.60;2.40;;;0.60;99.90;;;;;;4983901;28;20462;-61
2021/11/29 01:48:31;;;;;;;3.20;2.73;;;0.60;99.90;;;;;;4990364;28;20167;-61
2021/11/29 01:50:58;;;;;;;2.77;2.50;;;0.50;99.90;;;;;;4983872;28;20250;-60
2021/11/29 01:53:25;;;;;;;3.10;2.80;;;0.50;99.90;;;;;;4982244;28;20195;-60
2021/11/29 01:55:52;;;;;;;2.60;2.40;;;0.50;99.90;;;;;;4984884;28;20633;-59
2021/11/29 01:58:19;;;;;;;3.30;3.00;;;0.50;99.90;;;;;;4988061;28;20464;-60
2021/11/29 02:00:50;;;;;;;2.80;2.60;;;0.40;99.90;;;;;;4988894;28;20433;-60
2021/11/29 02:03:17;;;;;;;4.63;3.20;;;0.40;99.90;;;;;;4983576;28;20465;-61
2021/11/29 02:05:42;;;;;;;3.17;2.87;;;0.40;99.90;;;;;;4980847;28;20508;-59
2021/11/29 02:08:08;;;;;;;2.90;2.70;;;0.40;99.90;;;;;;4979451;28;20965;-60
2021/11/29 02:10:34;;;;;;;3.03;2.80;;;0.40;99.90;;;;;;4980605;28;20283;-58
2021/11/29 02:13:00;;;;;;;3.20;2.90;;;0.40;99.90;;;;;;4980976;28;20226;-60
2021/11/29 02:15:26;;;;;;;2.80;2.50;;;0.40;99.90;;;;;;4980481;28;20438;-61
2021/11/29 02:17:52;;;;;;;3.50;3.20;;;0.50;99.90;;;;;;4982306;28;20214;-60
2021/11/29 02:20:20;;;;;;;3.50;3.17;;;0.50;99.90;;;;;;4980260;28;21531;-60
2021/11/29 02:22:46;;;;;;;3.40;3.10;;;0.50;99.90;;;;;;4982254;28;20586;-60
2021/11/29 02:25:15;;;;;;;2.87;2.67;;;0.50;99.90;;;;;;4983305;28;20445;-57
2021/11/29 02:27:42;;;;;;;3.67;3.10;;;0.50;99.90;;;;;;4985936;28;20478;-59
2021/11/29 02:30:09;;;;;;;4.03;3.03;;;0.50;99.90;;;;;;4982642;28;20428;-60
2021/11/29 02:32:35;;;;;;;3.83;3.43;;;0.50;99.90;;;;;;5000974;22;20883;-60
2021/11/29 02:35:00;;;;;;;3.80;3.33;;;0.50;99.90;;;;;;5006467;28;20489;-60
2021/11/29 02:37:26;;;;;;;4.73;3.80;;;0.50;99.90;;;;;;5004823;28;20193;-59
2021/11/29 02:39:52;;;;;;;3.83;3.53;;;0.50;99.90;;;;;;4993990;28;20206;-59
2021/11/29 02:42:18;;;;;;;4.93;3.43;;;0.50;99.90;;;;;;4995634;28;20293;-59
2021/11/29 02:44:45;;;;;;;4.10;3.70;;;0.50;99.90;;;;;;4998792;28;20540;-59
2021/11/29 02:47:11;;;;;;;4.60;3.70;;;0.50;99.90;;;;;;5000099;28;20252;-59
2021/11/29 02:49:37;;;;;;;4.30;3.90;;;0.50;99.90;;;;;;4998976;28;20429;-59
2021/11/29 02:52:07;;;;;;;5.17;4.60;;;0.50;99.90;;;;;;5000568;28;20436;-59
2021/11/29 02:54:35;;;;;;;5.27;3.77;;;0.50;99.90;;;;;;4999885;28;20170;-60
2021/11/29 02:57:07;;;;;;;6.30;4.60;;;0.50;99.90;;;;;;5000723;28;20434;-59
2021/11/29 02:59:36;;;;;;;4.57;3.80;;;0.50;99.90;;;;;;5003107;28;20516;-59
2021/11/29 03:02:05;;;;;;;5.83;4.03;;;0.50;99.90;;;;;;5009695;28;20413;-59
2021/11/29 03:04:33;;;;;;;6.87;4.57;;;0.50;99.90;;;;;;5010213;28;20801;-60
2021/11/29 03:06:59;;;;;;;4.73;4.23;;;0.50;99.90;;;;;;5003678;28;20477;-58
2021/11/29 03:09:27;;;;;;;5.13;4.30;;;0.50;99.90;;;;;;5001775;28;20442;-59
2021/11/29 03:11:54;;;;;;;5.83;4.50;;;0.50;99.90;;;;;;4999391;28;20444;-59
2021/11/29 03:14:21;;;;;;;5.43;4.50;;;0.50;99.90;;;;;;4999793;28;20497;-59
2021/11/29 03:16:48;;;;;;;6.50;4.80;;;0.60;99.90;;;;;;4998421;28;20472;-60
2021/11/29 03:19:14;;;;;;;5.70;4.93;;;0.60;99.90;;;;;;5000256;28;20435;-60
2021/11/29 03:21:40;;;;;;;7.67;5.37;;;0.50;99.90;;;;;;4997610;28;20971;-59
2021/11/29 03:24:08;;;;;;;6.83;4.93;;;0.50;99.90;;;;;;4998223;28;20466;-60
2021/11/29 03:26:35;;;;;;;6.00;4.80;;;0.50;99.90;;;;;;5013687;28;20217;-59
2021/11/29 03:29:13;;;;;;;6.43;4.73;;;0.50;99.90;;;;;;5000706;28;20521;-58
2021/11/29 03:31:39;;;;;;;8.00;5.37;;;0.50;99.90;;;;;;4999554;28;20440;-60
2021/11/29 03:34:13;;;;;;;5.70;4.53;;;0.50;99.90;;;;;;5001029;28;20468;-60
2021/11/29 03:36:41;;;;;;;5.40;4.60;;;0.50;99.90;;;;;;5003304;28;20475;-58
2021/11/29 03:39:18;;;;;;;6.33;4.60;;;0.50;99.90;;;;;;4999013;28;20437;-60
2021/11/29 03:41:47;;;;;;;6.30;4.77;;;0.40;99.90;;;;;;4994240;28;20433;-61
2021/11/29 03:44:13;;;;;;;6.53;4.80;;;0.40;99.90;;;;;;4997771;28;20476;-61
2021/11/29 03:46:41;;;;;;;6.57;4.77;;;0.40;99.90;;;;;;5005939;28;20828;-59
2021/11/29 03:49:07;;;;;;;6.27;5.00;;;0.40;99.90;;;;;;5004675;28;20447;-59
2021/11/29 03:51:33;;;;;;;6.23;4.90;;;0.40;99.90;;;;;;5006065;28;20500;-60
2021/11/29 03:53:59;;;;;;;7.03;4.97;;;0.40;99.90;;;;;;4999044;28;20199;-58
2021/11/29 03:56:24;;;;;;;5.50;4.27;;;0.40;99.90;;;;;;4998769;28;20702;-59
2021/11/29 03:58:50;;;;;;;6.20;4.27;;;0.40;99.90;;;;;;5004458;28;20184;-60
2021/11/29 04:01:16;;;;;;;6.20;3.90;;;0.40;99.90;;;;;;5002483;28;20949;-59
2021/11/29 04:03:41;;;;;;;6.60;3.80;;;0.40;99.90;;;;;;5003123;28;20703;-59
2021/11/29 04:06:07;;;;;;;4.97;4.23;;;0.30;99.90;;;;;;4997106;28;20183;-59
2021/11/29 04:08:33;;;;;;;3.83;3.43;;;0.30;99.90;;;;;;5000879;28;20573;-60
2021/11/29 04:10:58;;;;;;;3.60;3.27;;;0.30;99.90;;;;;;5006062;28;20599;-59
2021/11/29 04:13:24;;;;;;;4.33;3.53;;;0.30;99.90;;;;;;4997758;28;20206;-60
2021/11/29 04:15:55;;;;;;;3.53;3.20;;;0.20;99.90;;;;;;5002910;28;20193;-60
2021/11/29 04:18:20;;;;;;;4.53;3.40;;;0.20;99.90;;;;;;4996887;28;20183;-60
2021/11/29 04:20:46;;;;;;;5.17;3.53;;;0.20;99.90;;;;;;5002503;28;20445;-59
2021/11/29 04:23:12;;;;;;;4.83;3.97;;;0.20;99.90;;;;;;5003442;28;20278;-59
2021/11/29 04:25:45;;;;;;;4.80;3.70;;;0.20;99.90;;;;;;5007302;28;20195;-58
2021/11/29 04:28:11;;;;;;;4.93;4.10;;;0.20;99.90;;;;;;5000750;28;20206;-59
2021/11/29 04:30:37;;;;;;;5.70;4.00;;;0.20;99.90;;;;;;5008917;28;20492;-59
2021/11/29 04:33:03;;;;;;;4.60;4.07;;;0.20;99.90;;;;;;5003209;28;20295;-60
2021/11/29 04:35:28;;;;;;;6.03;4.30;;;0.20;99.90;;;;;;5002956;28;20881;-60
2021/11/29 04:37:54;;;;;;;6.70;4.27;;;0.20;99.90;;;;;;5000588;28;20720;-59
2021/11/29 04:40:20;;;;;;;5.10;4.17;;;0.20;99.90;;;;;;4999065;28;22541;-60
2021/11/29 04:42:46;;;;;;;4.93;4.17;;;0.20;99.90;;;;;;4998469;28;20503;-59
2021/11/29 04:45:12;;;;;;;5.93;4.13;;;0.20;99.90;;;;;;5002994;28;21256;-59
2021/11/29 04:47:38;;;;;;;5.23;4.57;;;0.10;99.90;;;;;;4995891;28;20206;-59
2021/11/29 04:50:05;;;;;;;5.93;4.73;;;0.10;99.90;;;;;;5004665;28;21021;-60
2021/11/29 04:52:30;;;;;;;5.90;4.50;;;0.10;99.90;;;;;;4997875;28;20265;-60
2021/11/29 04:54:56;;;;;;;6.07;4.20;;;0.10;99.90;;;;;;4997853;28;20954;-60
2021/11/29 04:57:22;;;;;;;6.70;5.20;;;0.10;99.90;;;;;;4994152;28;20187;-59
2021/11/29 04:59:48;;;;;;;6.13;4.67;;;0.10;99.90;;;;;;4996923;28;20719;-60
2021/11/29 05:02:13;;;;;;;5.50;4.43;;;0.10;99.90;;;;;;4996291;28;20273;-59
2021/11/29 05:04:45;;;;;;;7.33;5.20;;;0.10;99.90;;;;;;4997783;28;20472;-60
2021/11/29 05:07:10;;;;;;;6.60;4.77;;;0.10;99.90;;;;;;4997433;28;20190;-60
2021/11/29 05:09:36;;;;;;;7.40;5.20;;;0.10;99.90;;;;;;4999152;28;20441;-60
2021/11/29 05:12:02;;;;;;;7.37;5.20;;;0.10;99.90;;;;;;4995048;28;20193;-60
2021/11/29 05:14:27;;;;;;;9.90;5.63;;;0.10;99.90;;;;;;4996939;28;20183;-60
2021/11/29 05:16:53;;;;;;;7.47;5.90;;;0.10;99.90;;;;;;5002864;28;20225;-59
2021/11/29 05:19:19;;;;;;;8.13;5.70;;;0.00;99.90;;;;;;4999295;28;20677;-59
2021/11/29 05:21:44;;;;;;;12.00;5.97;;;0.00;99.90;;;;;;4995735;28;20555;-59
2021/11/29 05:24:10;;;;;;;9.20;5.43;;;0.00;99.90;;;;;;4998804;28;20206;-59
2021/11/29 05:26:35;;;;;;;7.27;5.10;;;0.00;99.90;;;;;;5005478;28;20204;-60
2021/11/29 05:29:01;;;;;;;10.00;5.20;;;0.00;99.90;;;;;;5005057;28;20190;-58
2021/11/29 05:31:27;;;;;;;7.43;5.00;;;-0.10;99.90;;;;;;5003831;28;20289;-59
2021/11/29 05:33:53;;;;;;;8.20;5.93;;;-0.10;99.90;;;;;;5009559;28;20736;-59
2021/11/29 05:36:19;;;;;;;7.97;5.67;;;-0.10;99.90;;;;;;5005298;28;20198;-58
2021/11/29 05:38:45;;;;;;;6.80;4.67;;;-0.10;99.90;;;;;;5003303;28;20233;-60
2021/11/29 05:41:11;;;;;;;9.30;6.33;;;-0.10;99.90;;;;;;5004554;28;21078;-58
2021/11/29 05:43:37;;;;;;;7.70;5.17;;;-0.10;99.90;;;;;;5007174;28;20476;-59
2021/11/29 05:46:03;;;;;;;7.83;5.80;;;-0.10;99.90;;;;;;5007228;28;20442;-59
2021/11/29 05:48:29;;;;;;;10.03;5.97;;;-0.10;99.90;;;;;;5003949;28;20174;-57
2021/11/29 05:51:00;;;;;;;8.40;5.50;;;-0.10;99.90;;;;;;5009779;28;20673;-59
2021/11/29 05:53:25;;;;;;;8.43;6.10;;;0.00;99.90;;;;;;5003803;28;20457;-58
2021/11/29 05:55:53;;;;;;;11.73;6.83;;;0.00;99.90;;;;;;5000122;28;20988;-58
2021/11/29 05:58:19;;;;;;;11.40;6.20;;;0.00;99.90;;;;;;4997324;28;20190;-58
2021/11/29 06:00:44;;;;;;;10.40;6.23;;;0.10;99.90;;;;;;5003604;28;20439;-58
2021/11/29 06:03:10;;;;;;;11.07;6.83;;;0.10;99.90;;;;;;5007739;28;20443;-57
2021/11/29 06:05:36;;;;;;;10.33;5.80;;;0.10;99.90;;;;;;5004684;28;20174;-59
2021/11/29 06:08:02;;;;;;;11.33;6.93;;;0.10;99.90;;;;;;5000134;28;20205;-60
2021/11/29 06:10:28;;;;;;;12.60;7.73;;;0.20;99.90;;;;;;5005658;28;20471;-59
2021/11/29 06:12:53;;;;;;;10.20;6.70;;;0.20;99.90;;;;;;5007224;28;20480;-60
2021/11/29 06:15:19;;;;;;;12.13;7.30;;;0.20;99.90;;;;;;5011210;28;20182;-60
2021/11/29 06:17:45;;;;;;;12.33;7.17;;;0.20;99.90;;;;;;5004324;28;20187;-61
2021/11/29 06:20:19;;;;;;;18.17;6.83;;;0.20;99.90;;;;;;4999030;28;20185;-59
2021/11/29 06:22:45;;;;;;;10.60;6.73;;;0.20;99.90;;;;;;5010608;28;20451;-60
2021/11/29 06:25:11;;;;;;;10.47;6.80;;;0.20;99.90;;;;;;5011918;28;20530;-60
2021/11/29 06:27:37;;;;;;;9.20;6.53;;;0.20;99.90;;;;;;5006997;28;20544;-59
2021/11/29 06:30:03;;;;;;;14.00;7.50;;;0.20;99.90;;;;;;5003724;28;20214;-59
2021/11/29 06:32:28;;;;;;;12.27;7.03;;;0.20;99.90;;;;;;5003269;28;20680;-59
2021/11/29 06:34:54;;;;;;;10.47;6.80;;;0.20;99.90;;;;;;5006503;28;20925;-58
2021/11/29 06:37:20;;;;;;;15.33;7.37;;;0.20;99.90;;;;;;5005346;28;20190;-59
2021/11/29 06:39:47;;;;;;;10.80;7.07;;;0.20;99.90;;;;;;5008034;28;20558;-58
2021/11/29 06:42:13;;;;;;;16.90;8.73;;;0.20;99.90;;;;;;5009939;28;20429;-60
2021/11/29 06:44:39;;;;;;;11.70;7.93;;;0.20;99.90;;;;;;5005126;28;20464;-59
2021/11/29 06:47:04;;;;;;;18.17;8.90;;;0.30;99.90;;;;;;5008916;28;20209;-58
2021/11/29 06:49:30;;;;;;;14.37;8.83;;;0.30;99.90;;;;;;5009287;28;20689;-59
2021/11/29 06:51:56;;;;;;;16.60;10.90;;;0.30;99.90;;;;;;5005551;28;20344;-60
2021/11/29 06:54:22;;;;;;;17.17;9.83;;;0.30;99.90;;;;;;5007674;28;20281;-61
2021/11/29 06:56:48;;;;;;;15.90;10.30;;;0.30;99.90;;;;;;5003436;28;20187;-61
2021/11/29 06:59:14;;;;;;;18.27;9.90;;;0.30;99.90;;;;;;5016900;28;20420;-61
2021/11/29 07:01:40;;;;;;;17.67;10.57;;;0.30;99.90;;;;;;5012356;28;20190;-61
2021/11/29 07:04:05;;;;;;;17.50;10.20;;;0.30;99.90;;;;;;5005612;28;20672;-62
2021/11/29 07:06:31;;;;;;;15.97;9.07;;;0.30;99.90;;;;;;5009457;28;20277;-61
2021/11/29 07:08:57;;;;;;;17.87;9.37;;;0.30;99.90;;;;;;5008754;28;20194;-62
2021/11/29 07:11:23;;;;;;;18.30;9.73;;;0.30;99.90;;;;;;4994018;28;20493;-62
2021/11/29 07:13:49;;;;;;;17.03;9.67;;;0.30;99.90;;;;;;4994991;28;20206;-61
2021/11/29 07:16:15;;;;;;;18.90;10.90;;;0.30;99.90;;;;;;5004005;28;20178;-61
2021/11/29 07:18:41;;;;;;;18.90;10.10;;;0.30;99.90;;;;;;5002495;28;21066;-61
2021/11/29 07:21:09;;;;;;;20.43;11.23;;;0.30;99.90;;;;;;5004583;28;20185;-61
2021/11/29 07:23:36;;;;;;;16.37;10.37;;;0.40;99.90;;;;;;4996998;28;20462;-61
2021/11/29 07:26:02;;;;;;;16.80;9.83;;;0.40;99.90;;;;;;5007679;28;20438;-60
2021/11/29 07:28:27;;;;;;;20.13;11.40;;;0.40;99.90;;;;;;5007972;28;20948;-61
2021/11/29 07:30:53;;;;;;;19.70;11.03;;;0.40;99.90;;;;;;5007131;28;20950;-61
2021/11/29 07:33:19;;;;;;;18.97;10.80;;;0.30;99.90;;;;;;5006743;28;20238;-61
2021/11/29 07:35:45;;;;;;;20.90;10.53;;;0.30;99.90;;;;;;5005421;28;20433;-61
2021/11/29 07:38:12;;;;;;;20.77;11.30;;;0.30;99.90;;;;;;5008125;28;20258;-60
2021/11/29 07:40:37;;;;;;;17.17;10.30;;;0.30;99.90;;;;;;5007737;28;20194;-61
2021/11/29 07:43:06;;;;;;;24.23;11.27;;;0.30;99.90;;;;;;5002748;28;20462;-60
2021/11/29 07:45:33;;;;;;;13.20;8.60;;;0.30;99.90;;;;;;5008435;28;20720;-60
2021/11/29 07:47:59;;;;;;;17.50;9.73;;;0.30;99.90;;;;;;5009502;28;20464;-63
2021/11/29 07:50:25;;;;;;;13.57;8.57;;;0.30;99.90;;;;;;5007783;28;20434;-59
2021/11/29 07:52:51;;;;;;;14.07;7.90;;;0.20;99.90;;;;;;5008078;28;20236;-61
2021/11/29 07:55:21;;;;;;;12.50;7.50;;;0.20;99.90;;;;;;5009490;28;20470;-61
2021/11/29 07:57:47;;;;;;;15.33;8.30;;;0.20;99.90;;;;;;5008987;28;20641;-60
2021/11/29 08:00:19;;;;;;;16.70;7.50;;;0.20;99.90;;;;;;5005442;28;20430;-62
2021/11/29 08:02:46;;;;;;;10.43;6.20;;;0.20;99.90;;;;;;4995370;28;20824;-61
2021/11/29 08:05:12;;;;;;;8.47;5.53;;;0.20;99.90;;;;;;5007117;28;20475;-61
2021/11/29 08:07:37;;;;;;;11.30;6.10;;;0.30;99.90;;;;;;5008067;28;20456;-62
2021/11/29 08:10:03;;;;;;;9.77;5.90;;;0.30;99.90;;;;;;5008087;28;20317;-60
2021/11/29 08:12:29;;;;;;;12.93;7.50;;;0.30;99.90;;;;;;5007883;28;20203;-61
2021/11/29 08:14:55;;;;;;;10.47;5.77;;;0.30;99.90;;;;;;5008835;28;20432;-61
2021/11/29 08:17:22;;;;;;;15.50;6.50;;;0.30;99.90;;;;;;5007575;28;20185;-61
2021/11/29 08:19:47;;;;;;;12.40;6.30;;;0.20;99.90;;;;;;5007723;28;20194;-61
2021/11/29 08:22:13;;;;;;;12.03;6.17;;;0.30;99.90;;;;;;5007815;28;20835;-60
2021/11/29 08:24:40;;;;;;;9.53;5.00;;;0.30;99.90;;;;;;5009228;28;20723;-60
2021/11/29 08:27:06;;;;;;;18.53;5.80;;;0.30;99.90;;;;;;5008390;28;20468;-60
2021/11/29 08:29:32;;;;;;;9.33;4.97;;;0.30;99.90;;;;;;4996330;28;20809;-59
2021/11/29 08:31:58;;;;;;;16.30;5.47;;;0.30;99.90;;;;;;5003073;28;20524;-60
2021/11/29 08:34:24;;;;;;;8.40;5.27;;;0.30;99.90;;;;;;5009482;28;20464;-60
2021/11/29 08:36:50;;;;;;;8.20;5.40;;;0.30;99.90;;;;;;5029264;23;20498;-59
2021/11/29 08:39:15;;;;;;;9.90;5.97;;;0.30;99.90;;;;;;4996330;28;20933;-61
2021/11/29 08:41:41;;;;;;;10.90;6.20;;;0.30;99.90;;;;;;4989490;28;20183;-59
2021/11/29 08:44:07;;;;;;;8.63;5.63;;;0.30;99.90;;;;;;4996864;28;20168;-59
2021/11/29 08:46:33;;;;;;;8.60;5.83;;;0.30;99.90;;;;;;4996277;28;20252;-59
2021/11/29 08:49:00;;;;;;;10.83;5.30;;;0.30;99.90;;;;;;4998819;28;20417;-59
2021/11/29 08:51:25;;;;;;;12.93;7.00;;;0.30;99.90;;;;;;4989861;28;20434;-61
2021/11/29 08:53:51;;;;;;;9.30;5.30;;;0.30;99.90;;;;;;5006122;28;20515;-60
2021/11/29 08:56:17;;;;;;;9.77;5.40;;;0.30;99.90;;;;;;5007212;28;20196;-60
2021/11/29 08:58:44;;;;;;;8.87;5.90;;;0.30;99.90;;;;;;5011767;28;20438;-60
2021/11/29 09:01:10;;;;;;;8.23;5.80;;;0.30;99.90;;;;;;5011142;28;20194;-60
2021/11/29 09:03:35;;;;;;;7.40;4.97;;;0.30;99.90;;;;;;4994782;28;20416;-60
2021/11/29 09:06:01;;;;;;;7.50;5.13;;;0.30;99.90;;;;;;5001591;28;20454;-57
2021/11/29 09:08:27;;;;;;;11.53;5.47;;;0.30;99.90;;;;;;4987078;28;20554;-59
2021/11/29 09:10:54;;;;;;;8.53;4.97;;;0.40;99.90;;;;;;4992035;28;20781;-58
2021/11/29 09:13:20;;;;;;;8.43;5.40;;;0.40;99.90;;;;;;4992661;28;20422;-60
2021/11/29 09:15:47;;;;;;;9.23;5.57;;;0.40;99.90;;;;;;4986916;28;20478;-57
2021/11/29 09:18:14;;;;;;;6.37;4.90;;;0.50;99.90;;;;;;4988700;28;20416;-57
2021/11/29 09:20:41;;;;;;;11.70;6.20;;;0.60;99.90;;;;;;4990982;28;20513;-58
2021/11/29 09:23:11;;;;;;;9.93;6.53;;;0.60;99.90;;;;;;4989703;28;20442;-61
2021/11/29 09:25:41;;;;;;;8.83;5.50;;;0.70;99.90;;;;;;4990234;28;20448;-58
2021/11/29 09:28:11;;;;;;;10.57;6.13;;;0.80;99.90;;;;;;4990180;28;20470;-59
2021/11/29 09:30:37;;;;;;;9.03;5.17;;;0.80;99.90;;;;;;4989617;28;20462;-59
2021/11/29 09:33:04;;;;;;;7.87;5.57;;;0.80;99.90;;;;;;4990351;28;20473;-59
2021/11/29 09:35:30;;;;;;;8.80;6.03;;;0.80;99.90;;;;;;4991171;28;20457;-56
2021/11/29 09:37:57;;;;;;;9.00;5.43;;;0.80;99.70;;;;;;4985891;28;20519;-56
2021/11/29 09:40:27;;;;;;;10.90;5.03;;;0.90;99.90;;;;;;4987704;28;20232;-57
2021/11/29 09:42:53;;;;;;;10.53;5.50;;;0.90;99.90;;;;;;4988743;28;20483;-59
2021/11/29 09:45:21;;;;;;;11.87;6.17;;;0.90;99.40;;;;;;4991639;28;20450;-60
2021/11/29 09:47:47;;;;;;;10.10;5.27;;;1.00;99.40;;;;;;4989093;28;20546;-60
2021/11/29 09:50:14;;;;;;;8.40;4.80;;;1.00;99.60;;;;;;4988297;28;20438;-60
2021/11/29 09:52:40;;;;;;;8.30;5.23;;;1.10;99.30;;;;;;4979054;28;20415;-60
2021/11/29 09:55:08;;;;;;;7.00;4.07;;;1.10;98.70;;;;;;4983657;28;20485;-60
2021/11/29 09:57:34;;;;;;;7.73;5.03;;;1.20;98.80;;;;;;4984187;28;21047;-60
2021/11/29 10:00:00;;;;;;;8.93;5.10;;;1.20;98.60;;;;;;4981461;28;20532;-59
2021/11/29 10:02:26;;;;;;;7.67;5.10;;;1.30;98.10;;;;;;4988764;28;20644;-59
2021/11/29 10:04:51;;;;;;;8.10;5.47;;;1.30;98.40;;;;;;4990655;28;20202;-58
2021/11/29 10:07:38;;;;;;;10.57;5.60;;;1.40;98.40;;;;;;4983861;28;20207;-60
2021/11/29 10:10:29;;;;;;;5.43;4.00;;;1.50;97.70;;;;;;4984484;28;20172;-57
2021/11/29 10:13:02;;;;;;;7.07;4.97;;;1.50;96.70;;;;;;4979024;28;20475;-60
2021/11/29 10:15:30;;;;;;;12.43;6.43;;;1.60;96.60;;;;;;4994598;28;20446;-59
2021/11/29 10:18:09;;;;;;;7.63;4.50;;;1.80;95.60;;;;;;4992366;28;20419;-60
2021/11/29 10:20:49;;;;;;;7.40;4.27;;;1.80;93.50;;;;;;4999033;28;20978;-58
2021/11/29 10:23:16;;;;;;;10.30;5.47;;;1.80;93.00;;;;;;4992064;28;20463;-60
2021/11/29 10:25:44;;;;;;;8.20;4.50;;;1.80;93.00;;;;;;4992228;28;21135;-58
2021/11/29 10:28:33;;;;;;;7.37;4.70;;;1.70;90.30;;;;;;4990087;28;20461;-62
2021/11/29 10:31:22;;;;;;;10.53;5.07;;;1.60;86.90;;;;;;4987704;28;20431;-61
2021/11/29 10:34:06;;;;;;;9.10;4.80;;;1.50;89.00;;;;;;4991892;28;20418;-60
2021/11/29 10:36:35;;;;;;;5.43;4.30;;;1.40;88.20;;;;;;5023180;28;20466;-61
2021/11/29 10:39:04;;;;;;;7.17;4.53;;;1.30;89.70;;;;;;5016276;28;20426;-59
2021/11/29 10:41:37;;;;;;;7.30;4.60;;;1.20;83.50;;;;;;4974660;28;20854;-60
2021/11/29 10:44:08;;;;;;;10.40;5.53;;;1.10;85.80;;;;;;4986297;28;20596;-57
2021/11/29 10:46:36;;;;;;;7.17;4.83;;;1.20;88.00;;;;;;4988357;28;20553;-58
2021/11/29 10:49:07;;;;;;;8.10;5.33;;;1.20;90.30;;;;;;4987518;28;20626;-59
2021/11/29 10:51:34;;;;;;;11.33;5.20;;;1.30;90.30;;;;;;4983091;28;20915;-58
2021/11/29 10:54:03;;;;;;;7.40;4.60;;;1.30;89.10;;;;;;4990144;28;20428;-57
2021/11/29 10:56:31;;;;;;;9.07;5.10;;;1.30;82.70;;;;;;4986209;28;20578;-57
2021/11/29 10:58:59;;;;;;;11.00;5.77;;;1.20;81.40;;;;;;4985991;28;20445;-59
2021/11/29 11:01:54;;;;;;;10.47;5.10;;;1.20;86.10;;;;;;4980345;28;20467;-59
2021/11/29 11:04:25;;;;;;;9.43;5.13;;;1.40;83.70;;;;;;4987096;28;20438;-59
2021/11/29 11:06:57;;;;;;;8.30;5.07;;;1.60;83.50;;;;;;4988032;28;20464;-58
2021/11/29 11:09:34;;;;;;;13.03;5.23;;;1.80;81.50;;;;;;4985889;28;20419;-59
2021/11/29 11:12:09;;;;;;;8.70;4.80;;;1.90;80.80;;;;;;4985276;28;20480;-59
2021/11/29 11:14:36;;;;;;;6.63;3.77;;;1.90;75.30;;;;;;5000898;28;20418;-57
2021/11/29 11:17:12;;;;;;;7.23;4.00;;;1.90;74.60;;;;;;4987585;28;20508;-59
2021/11/29 11:19:47;;;;;;;7.57;4.67;;;1.90;70.00;;;;;;4988147;28;20508;-59
2021/11/29 11:22:18;;;;;;;6.60;4.07;;;1.80;71.90;;;;;;4987150;28;20430;-58
2021/11/29 11:24:46;;;;;;;6.87;4.00;;;1.90;74.50;;;;;;4985131;28;20934;-58
2021/11/29 11:27:12;;;;;;;8.17;4.50;;;2.20;72.50;;;;;;4987991;28;20460;-59
2021/11/29 11:29:49;;;;;;;11.60;4.20;;;2.50;69.50;;;;;;4988565;28;20455;-59
2021/11/29 11:32:45;;;;;;;11.43;4.20;;;2.70;69.80;;;;;;4989636;28;20421;-59
2021/11/29 11:35:13;;;;;;;5.10;3.07;;;2.80;63.10;;;;;;4983617;28;20471;-59
2021/11/29 11:37:41;;;;;;;5.13;3.90;;;2.70;62.80;;;;;;4986899;28;20439;-58
2021/11/29 11:40:10;;;;;;;6.83;3.43;;;2.70;62.20;;;;;;4987579;28;20423;-59
2021/11/29 11:42:36;;;;;;;5.47;3.40;;;2.60;63.20;;;;;;4986777;28;20431;-59
2021/11/29 11:45:05;;;;;;;10.60;3.97;;;2.50;64.00;;;;;;4987421;28;20444;-58
2021/11/29 11:47:32;;;;;;;5.60;3.50;;;2.40;64.10;;;;;;4988515;28;20477;-59
2021/11/29 11:49:58;;;;;;;4.87;3.13;;;2.30;65.10;;;;;;4985290;28;20852;-60
2021/11/29 11:52:25;;;;;;;7.20;3.70;;;2.10;65.10;;;;;;4978364;28;20435;-59
2021/11/29 11:54:56;;;;;;;4.63;3.23;;;2.00;66.20;;;;;;4988760;28;20435;-58
2021/11/29 11:57:25;;;;;;;3.73;3.07;;;1.90;67.80;;;;;;4986120;28;20420;-59
2021/11/29 12:00:14;;;;;;;4.50;3.23;;;1.90;67.20;;;;;;4987619;28;20428;-58
2021/11/29 12:02:43;;;;;;;10.10;3.63;;;1.80;66.10;;;;;;4980287;28;20455;-60
2021/11/29 12:05:25;;;;;;;6.90;3.27;;;1.70;64.00;;;;;;4984388;28;20479;-59
2021/11/29 12:07:52;;;;;;;6.40;3.67;;;1.70;67.60;;;;;;4977638;28;20470;-57
2021/11/29 12:10:44;;;;;;;6.90;3.80;;;1.70;67.30;;;;;;4978600;28;20979;-58
2021/11/29 12:13:16;;;;;;;5.50;3.13;;;1.80;69.10;;;;;;4985437;28;20437;-56
2021/11/29 12:15:52;;;;;;;11.20;4.03;;;1.80;70.50;;;;;;4987705;28;21035;-58
2021/11/29 12:18:39;;;;;;;9.53;4.27;;;2.00;70.70;;;;;;4998149;28;20511;-57
2021/11/29 12:21:20;;;;;;;7.40;3.13;;;2.20;69.50;;;;;;4995221;28;20503;-57
2021/11/29 12:24:04;;;;;;;2.87;2.10;;;2.40;66.80;;;;;;4982378;28;20484;-58
2021/11/29 12:29:23;;;;;;;7.10;2.77;;;2.30;62.40;;;;;;4985721;28;20770;-58
2021/11/29 12:32:04;;;;;;;2.63;2.00;;;2.20;62.00;;;;;;4982664;28;20474;-56
2021/11/29 12:37:33;;;;;;;6.17;2.80;;;1.90;62.90;;;;;;4983605;28;20438;-56
2021/11/29 12:40:01;;;;;;;4.37;2.70;;;1.80;65.70;;;;;;4978973;28;20513;-58
2021/11/29 12:42:27;;;;;;;4.10;2.40;;;1.80;70.20;;;;;;4981695;28;20434;-56
2021/11/29 12:44:52;;;;;;;6.77;3.03;;;1.80;71.00;;;;;;4982673;28;20469;-55
2021/11/29 12:47:24;;;;;;;4.40;2.90;;;1.80;71.20;;;;;;4978569;28;20239;-57
2021/11/29 12:50:00;;;;;;;5.70;3.10;;;1.80;73.20;;;;;;4979423;28;20554;-59
2021/11/29 12:52:46;;;;;;;3.83;3.40;;;1.80;75.30;;;;;;4982146;28;20432;-59
2021/11/29 12:55:17;;;;;;;6.10;3.70;;;1.80;74.20;;;;;;4999352;28;20995;-59
2021/11/29 12:57:43;;;;;;;6.70;3.50;;;1.70;74.50;;;;;;4984493;28;20442;-60
2021/11/29 13:00:19;;;;;;;4.97;3.60;;;1.70;73.50;;;;;;4982265;28;20497;-59
2021/11/29 13:02:50;;;;;;;4.67;3.23;;;1.70;74.30;;;;;;4981172;28;20217;-62